createdAt,value
2022-11-20T00:01:17.347Z,4.85
2022-11-20T00:03:44.764Z,5.43
2022-11-20T00:06:14.909Z,5.28
2022-11-20T00:08:42.267Z,4.00
2022-11-20T00:11:16.363Z,4.22
2022-11-20T00:13:52.320Z,2.17
2022-11-20T00:16:22.155Z,4.40
2022-11-20T00:18:49.658Z,3.40
2022-11-20T00:21:22.345Z,3.20
2022-11-20T00:23:50.202Z,2.97
2022-11-20T00:26:19.953Z,2.63
2022-11-20T00:28:55.678Z,3.67
2022-11-20T00:31:23.303Z,3.83
2022-11-20T00:33:50.476Z,10.63
2022-11-20T00:36:20.763Z,8.15
2022-11-20T00:38:48.096Z,5.80
2022-11-20T00:41:16.777Z,3.60
2022-11-20T00:43:44.288Z,6.47
2022-11-20T00:46:17.006Z,4.10
2022-11-20T00:48:45.060Z,4.90
2022-11-20T00:51:17.981Z,4.30
2022-11-20T00:53:46.087Z,8.73
2022-11-20T00:56:15.797Z,3.78
2022-11-20T00:58:44.972Z,6.90
2022-11-20T01:01:14.634Z,4.40
2022-11-20T01:03:43.996Z,8.95
2022-11-20T01:06:16.743Z,6.28
2022-11-20T01:08:44.885Z,5.15
2022-11-20T01:11:14.667Z,7.28
2022-11-20T01:13:42.698Z,9.00
2022-11-20T01:16:13.191Z,6.30
2022-11-20T01:18:42.085Z,8.43
2022-11-20T01:21:11.724Z,4.78
2022-11-20T01:23:40.574Z,8.32
2022-11-20T01:26:09.958Z,9.48
2022-11-20T01:28:37.724Z,4.97
2022-11-20T01:31:35.655Z,4.13
2022-11-20T01:34:05.938Z,7.45
2022-11-20T01:36:34.435Z,8.02
2022-11-20T01:39:05.239Z,3.30
2022-11-20T01:41:52.617Z,2.15
2022-11-20T01:44:22.516Z,8.65
2022-11-20T01:47:02.450Z,5.57
2022-11-20T01:49:39.726Z,3.05
2022-11-20T01:52:13.247Z,4.10
2022-11-20T01:54:54.631Z,7.15
2022-11-20T01:57:23.787Z,3.60
2022-11-20T02:00:15.149Z,2.30
2022-11-20T02:02:48.648Z,4.50
2022-11-20T02:05:53.213Z,12.05
2022-11-20T02:08:21.232Z,9.13
2022-11-20T02:10:48.366Z,3.35
2022-11-20T02:13:33.963Z,5.82
2022-11-20T02:16:01.585Z,2.08
2022-11-20T02:18:29.987Z,4.13
2022-11-20T02:21:07.824Z,2.95
2022-11-20T02:23:41.775Z,6.32
2022-11-20T02:26:14.452Z,7.30
2022-11-20T02:28:41.844Z,5.13
2022-11-20T02:31:08.937Z,5.88
2022-11-20T02:33:36.011Z,3.00
2022-11-20T02:36:03.117Z,5.72
2022-11-20T02:38:30.194Z,4.40
2022-11-20T02:40:57.278Z,7.20
2022-11-20T02:43:24.704Z,7.80
2022-11-20T02:45:51.756Z,7.03
2022-11-20T02:48:18.796Z,18.80
2022-11-20T02:50:45.823Z,11.27
2022-11-20T02:53:13.070Z,6.05
2022-11-20T02:55:40.166Z,11.45
2022-11-20T02:58:07.395Z,10.90
2022-11-20T03:00:34.930Z,6.88
2022-11-20T03:03:01.889Z,5.80
2022-11-20T03:05:28.901Z,2.05
2022-11-20T03:07:55.885Z,6.28
2022-11-20T03:10:22.946Z,3.53
2022-11-20T03:12:57.031Z,1.55
2022-11-20T03:15:24.711Z,3.83
2022-11-20T03:17:56.320Z,2.67
2022-11-20T03:20:23.937Z,9.75
2022-11-20T03:22:51.000Z,5.47
2022-11-20T03:25:17.978Z,9.50
2022-11-20T03:27:45.068Z,6.35
2022-11-20T03:30:12.789Z,3.80
2022-11-20T03:32:39.732Z,6.00
2022-11-20T03:35:07.457Z,3.97
2022-11-20T03:37:34.446Z,5.95
2022-11-20T03:40:01.407Z,3.25
2022-11-20T03:42:46.658Z,5.53
2022-11-20T03:45:18.752Z,3.80
2022-11-20T03:47:46.696Z,6.85
2022-11-20T03:50:15.693Z,6.68
2022-11-20T03:52:42.882Z,6.63
2022-11-20T03:55:10.665Z,4.85
2022-11-20T03:57:37.705Z,4.05
2022-11-20T04:00:06.602Z,6.00
2022-11-20T04:02:33.600Z,6.38
2022-11-20T04:05:00.615Z,2.28
2022-11-20T04:07:27.694Z,5.95
2022-11-20T04:09:54.939Z,6.45
2022-11-20T04:12:21.930Z,9.55
2022-11-20T04:14:48.999Z,10.95
2022-11-20T04:17:16.031Z,9.45
2022-11-20T04:19:43.123Z,5.72
2022-11-20T04:22:10.280Z,3.35
2022-11-20T04:24:40.328Z,6.45
2022-11-20T04:27:07.473Z,6.30
2022-11-20T04:29:34.472Z,3.35
2022-11-20T04:32:01.683Z,4.32
2022-11-20T04:34:28.819Z,11.68
2022-11-20T04:36:55.906Z,3.28
2022-11-20T04:39:23.212Z,4.32
2022-11-20T04:42:10.416Z,1.48
2022-11-20T04:44:37.385Z,4.22
2022-11-20T04:47:04.434Z,7.05
2022-11-20T04:49:32.738Z,2.15
2022-11-20T04:51:59.755Z,4.57
2022-11-20T04:54:26.902Z,3.63
2022-11-20T04:56:54.011Z,5.72
2022-11-20T04:59:21.328Z,3.10
2022-11-20T05:01:48.696Z,3.72
2022-11-20T05:04:15.845Z,8.27
2022-11-20T05:06:42.906Z,4.13
2022-11-20T05:09:10.076Z,4.07
2022-11-20T05:11:37.113Z,2.88
2022-11-20T05:14:04.149Z,4.90
2022-11-20T05:16:31.305Z,4.75
2022-11-20T05:18:58.516Z,2.50
2022-11-20T05:21:25.592Z,3.63
2022-11-20T05:23:52.549Z,4.90
2022-11-20T05:26:22.524Z,3.60
2022-11-20T05:28:50.694Z,2.22
2022-11-20T05:31:27.535Z,4.97
2022-11-20T05:33:56.744Z,1.60
2022-11-20T05:36:24.149Z,6.40
2022-11-20T05:38:51.615Z,4.55
2022-11-20T05:41:21.558Z,4.97
2022-11-20T05:43:49.956Z,5.57
2022-11-20T05:46:26.496Z,6.93
2022-11-20T05:48:55.133Z,8.15
2022-11-20T05:51:22.344Z,5.15
2022-11-20T05:53:49.610Z,4.47
2022-11-20T05:56:19.759Z,4.22
2022-11-20T05:58:47.556Z,3.03
2022-11-20T06:01:23.449Z,4.93
2022-11-20T06:03:51.938Z,4.63
2022-11-20T06:06:20.706Z,10.30
2022-11-20T06:08:48.176Z,6.50
2022-11-20T06:11:16.055Z,3.70
2022-11-20T06:13:43.666Z,2.10
2022-11-20T06:16:12.797Z,2.58
2022-11-20T06:18:40.385Z,1.83
2022-11-20T06:21:10.446Z,3.65
2022-11-20T06:23:37.908Z,1.52
2022-11-20T06:26:07.158Z,3.25
2022-11-20T06:28:34.271Z,1.98
2022-11-20T06:31:01.770Z,3.97
2022-11-20T06:33:29.248Z,4.00
2022-11-20T06:36:04.645Z,7.53
2022-11-20T06:38:36.087Z,3.67
2022-11-20T06:41:05.248Z,5.63
2022-11-20T06:43:32.431Z,5.65
2022-11-20T06:46:00.508Z,5.50
2022-11-20T06:48:28.512Z,3.97
2022-11-20T06:50:55.743Z,2.20
2022-11-20T06:53:23.952Z,4.13
2022-11-20T06:55:56.579Z,2.80
2022-11-20T06:58:23.591Z,2.28
2022-11-20T07:00:50.765Z,4.18
2022-11-20T07:03:17.841Z,1.85
2022-11-20T07:05:46.419Z,3.72
2022-11-20T07:08:13.619Z,3.33
2022-11-20T07:10:40.747Z,4.78
2022-11-20T07:13:08.204Z,3.15
2022-11-20T07:15:35.179Z,2.08
2022-11-20T07:18:02.906Z,4.05
2022-11-20T07:20:29.939Z,3.67
2022-11-20T07:22:58.025Z,5.05
2022-11-20T07:25:40.886Z,5.43
2022-11-20T07:28:07.939Z,3.65
2022-11-20T07:30:35.026Z,4.90
2022-11-20T07:33:01.971Z,5.15
2022-11-20T07:35:29.074Z,7.43
2022-11-20T07:37:56.025Z,6.28
2022-11-20T07:40:23.173Z,3.70
2022-11-20T07:42:54.801Z,7.53
2022-11-20T07:45:23.723Z,6.22
2022-11-20T07:47:50.821Z,12.93
2022-11-20T07:50:18.552Z,5.05
2022-11-20T07:52:45.680Z,6.82
2022-11-20T07:55:13.313Z,3.40
2022-11-20T07:57:40.443Z,5.80
2022-11-20T08:00:11.795Z,9.00
2022-11-20T08:02:42.379Z,10.30
2022-11-20T08:05:11.209Z,4.15
2022-11-20T08:07:43.586Z,10.60
2022-11-20T08:10:13.103Z,12.48
2022-11-20T08:13:09.903Z,5.53
2022-11-20T08:15:38.624Z,4.15
2022-11-20T08:18:30.516Z,10.05
2022-11-20T08:20:58.555Z,7.35
2022-11-20T08:23:25.522Z,3.35
2022-11-20T08:25:52.739Z,8.10
2022-11-20T08:28:22.288Z,5.07
2022-11-20T08:30:51.556Z,5.75
2022-11-20T08:33:21.239Z,4.78
2022-11-20T08:35:48.353Z,5.25
2022-11-20T08:38:15.572Z,3.95
2022-11-20T08:41:02.558Z,5.80
2022-11-20T08:43:29.698Z,9.07
2022-11-20T08:45:58.266Z,6.47
2022-11-20T08:48:25.324Z,5.82
2022-11-20T08:50:52.410Z,6.93
2022-11-20T08:53:19.571Z,8.68
2022-11-20T08:55:46.860Z,9.85
2022-11-20T08:58:13.830Z,4.35
2022-11-20T09:00:41.103Z,7.50
2022-11-20T09:03:08.306Z,5.40
2022-11-20T09:05:35.452Z,5.13
2022-11-20T09:08:02.549Z,10.43
2022-11-20T09:10:29.979Z,16.33
2022-11-20T09:12:57.479Z,5.55
2022-11-20T09:15:25.748Z,5.10
2022-11-20T09:17:57.530Z,10.15
2022-11-20T09:20:24.625Z,5.32
2022-11-20T09:22:51.711Z,7.18
2022-11-20T09:25:19.315Z,7.82
2022-11-20T09:27:47.341Z,7.38
2022-11-20T09:30:17.521Z,3.58
2022-11-20T09:32:44.679Z,7.88
2022-11-20T09:35:12.220Z,3.50
2022-11-20T09:37:39.397Z,6.82
2022-11-20T09:40:07.272Z,6.88
2022-11-20T09:43:07.111Z,3.58
2022-11-20T09:46:06.949Z,6.10
2022-11-20T09:49:32.285Z,5.60
2022-11-20T09:52:23.670Z,5.30
2022-11-20T09:54:52.078Z,2.47
2022-11-20T09:57:23.787Z,4.10
2022-11-20T09:59:57.698Z,7.25
2022-11-20T10:03:07.580Z,4.32
2022-11-20T10:05:45.348Z,10.27
2022-11-20T10:08:33.129Z,8.23
2022-11-20T10:11:32.327Z,9.88
2022-11-20T10:14:40.285Z,12.43
2022-11-20T10:17:52.793Z,11.13
2022-11-20T10:20:42.585Z,9.70
2022-11-20T10:23:46.442Z,7.50
2022-11-20T10:26:30.990Z,10.43
2022-11-20T10:29:18.984Z,6.95
2022-11-20T10:31:51.529Z,15.40
2022-11-20T10:34:44.847Z,15.35
2022-11-20T10:37:20.434Z,12.57
2022-11-20T10:40:22.986Z,16.38
2022-11-20T10:43:03.118Z,13.30
2022-11-20T10:45:49.786Z,13.65
2022-11-20T10:48:21.924Z,9.18
2022-11-20T10:51:13.712Z,10.93
2022-11-20T11:00:22.815Z,0.90
2022-11-20T11:02:54.749Z,10.13
2022-11-20T11:06:00.615Z,6.25
2022-11-20T11:08:33.874Z,1.88
2022-11-20T11:11:09.209Z,7.90
2022-11-20T11:13:36.252Z,1.48
2022-11-20T11:16:04.698Z,2.35
2022-11-20T11:18:36.187Z,3.05
2022-11-20T11:21:06.214Z,3.75
2022-11-20T11:23:44.168Z,1.88
2022-11-20T11:26:25.636Z,4.05
2022-11-20T11:29:05.157Z,4.28
2022-11-20T11:31:34.791Z,4.13
2022-11-20T11:34:18.830Z,7.55
2022-11-20T11:36:59.742Z,1.65
2022-11-20T11:39:29.730Z,6.40
2022-11-20T11:41:57.857Z,4.72
2022-11-20T11:44:53.514Z,3.80
2022-11-20T11:47:31.776Z,4.32
2022-11-20T11:50:21.387Z,2.63
2022-11-20T11:53:19.170Z,5.93
2022-11-20T11:56:07.311Z,7.25
2022-11-20T11:58:52.652Z,2.78
2022-11-20T12:01:59.547Z,1.40
2022-11-20T12:04:45.604Z,4.20
2022-11-20T12:07:45.585Z,6.32
2022-11-20T12:10:19.003Z,3.65
2022-11-20T12:12:52.415Z,3.47
2022-11-20T12:15:31.588Z,1.92
2022-11-20T12:17:58.886Z,7.60
2022-11-20T12:20:33.773Z,4.00
2022-11-20T12:23:11.102Z,1.83
2022-11-20T12:25:41.470Z,3.45
2022-11-20T12:28:51.627Z,2.75
2022-11-20T12:32:03.561Z,3.85
2022-11-20T12:35:22.723Z,4.05
2022-11-20T12:38:40.009Z,3.88
2022-11-20T12:42:05.078Z,3.35
2022-11-20T12:45:12.387Z,7.30
2022-11-20T12:48:27.071Z,13.73
2022-11-20T12:51:43.994Z,5.90
2022-11-20T12:54:52.289Z,17.05
2022-11-20T12:57:51.614Z,20.30
2022-11-20T13:00:23.538Z,29.45
2022-11-20T13:03:23.837Z,24.58
2022-11-20T13:06:01.825Z,31.17
2022-11-20T13:08:34.646Z,32.33
2022-11-20T13:11:38.806Z,12.00
2022-11-20T13:14:26.902Z,18.77
2022-11-20T13:17:07.427Z,17.83
2022-11-20T13:19:34.956Z,12.07
2022-11-20T13:22:01.995Z,12.25
2022-11-20T13:24:33.674Z,6.38
2022-11-20T13:27:26.847Z,4.50
2022-11-20T13:30:02.862Z,6.75
2022-11-20T13:32:33.513Z,7.50
2022-11-20T13:35:05.904Z,6.32
2022-11-20T13:37:35.860Z,8.18
2022-11-20T13:40:22.369Z,12.07
2022-11-20T13:43:47.785Z,9.85
2022-11-20T13:46:16.294Z,7.70
2022-11-20T13:48:46.077Z,8.43
2022-11-20T13:51:42.249Z,7.88
2022-11-20T13:55:03.654Z,14.40
2022-11-20T13:57:49.374Z,7.57
2022-11-20T14:00:20.329Z,7.50
2022-11-20T14:03:15.904Z,7.65
2022-11-20T14:05:53.087Z,8.27
2022-11-20T14:08:29.851Z,10.73
2022-11-20T14:11:36.859Z,11.95
2022-11-20T14:14:18.183Z,2.50
2022-11-20T14:19:29.666Z,2.63
2022-11-20T14:22:19.410Z,2.85
2022-11-20T14:24:47.297Z,5.82
2022-11-20T14:27:18.001Z,9.05
2022-11-20T14:29:47.283Z,5.47
2022-11-20T14:32:18.250Z,3.58
2022-11-20T14:34:48.452Z,3.38
2022-11-20T14:37:21.730Z,5.73
2022-11-20T14:39:54.956Z,5.32
2022-11-20T14:42:27.670Z,7.03
2022-11-20T14:44:58.463Z,5.75
2022-11-20T14:47:28.295Z,4.60
2022-11-20T14:49:57.064Z,5.45
2022-11-20T14:52:26.604Z,2.67
2022-11-20T14:55:01.060Z,3.30
2022-11-20T14:57:33.559Z,5.63
2022-11-20T15:00:20.391Z,5.78
2022-11-20T15:02:49.348Z,3.78
2022-11-20T15:05:18.117Z,7.95
2022-11-20T15:07:48.376Z,5.00
2022-11-20T15:10:27.193Z,10.20
2022-11-20T15:13:16.469Z,6.65
2022-11-20T15:15:52.249Z,4.57
2022-11-20T15:18:22.673Z,6.13
2022-11-20T15:20:51.227Z,9.27
2022-11-20T15:23:20.137Z,14.63
2022-11-20T15:25:48.764Z,4.60
2022-11-20T15:28:48.945Z,4.88
2022-11-20T15:31:18.838Z,6.32
2022-11-20T15:33:46.234Z,9.38
2022-11-20T15:36:13.788Z,9.77
2022-11-20T15:38:41.116Z,6.82
2022-11-20T15:41:08.968Z,10.68
2022-11-20T15:43:36.080Z,7.10
2022-11-20T15:46:16.846Z,9.25
2022-11-20T15:48:53.246Z,17.88
2022-11-20T15:51:41.117Z,12.15
2022-11-20T15:54:13.986Z,15.40
2022-11-20T15:56:41.079Z,10.23
2022-11-20T15:59:08.228Z,11.63
2022-11-20T16:01:35.620Z,14.18
2022-11-20T16:04:03.012Z,7.68
2022-11-20T16:06:30.147Z,8.00
2022-11-20T16:08:57.182Z,7.90
2022-11-20T16:11:24.147Z,8.65
2022-11-20T16:14:09.726Z,17.08
2022-11-20T16:16:39.742Z,15.32
2022-11-20T16:19:06.718Z,12.60
2022-11-20T16:21:33.944Z,11.75
2022-11-20T16:24:03.192Z,8.93
2022-11-20T16:26:31.071Z,5.78
2022-11-20T16:29:00.364Z,6.20
2022-11-20T16:31:27.688Z,6.10
2022-11-20T16:33:57.165Z,5.32
2022-11-20T16:36:25.779Z,5.22
2022-11-20T16:38:57.495Z,5.28
2022-11-20T16:41:26.943Z,8.73
2022-11-20T16:43:59.789Z,2.70
2022-11-20T16:46:32.312Z,6.80
2022-11-20T16:49:01.976Z,5.05
2022-11-20T16:51:31.439Z,7.13
2022-11-20T16:53:58.609Z,5.45
2022-11-20T16:56:27.795Z,3.58
2022-11-20T16:58:57.648Z,4.07
2022-11-20T17:01:26.347Z,6.00
2022-11-20T17:04:02.250Z,3.55
2022-11-20T17:06:31.812Z,4.32
2022-11-20T17:08:59.069Z,4.72
2022-11-20T17:11:28.000Z,4.00
2022-11-20T17:13:56.694Z,12.35
2022-11-20T17:16:25.353Z,6.30
2022-11-20T17:18:58.329Z,5.63
2022-11-20T17:21:30.278Z,3.42
2022-11-20T17:24:01.494Z,7.32
2022-11-20T17:29:11.537Z,6.43
2022-11-20T17:31:41.743Z,8.40
2022-11-20T17:34:12.429Z,11.88
2022-11-20T17:36:45.891Z,17.88
2022-11-20T17:39:16.916Z,36.80
2022-11-20T17:41:44.325Z,39.28
2022-11-20T17:44:12.268Z,51.90
2022-11-20T17:46:39.383Z,63.25
2022-11-20T17:49:07.078Z,38.30
2022-11-20T17:51:35.414Z,32.47
2022-11-20T17:54:04.863Z,38.47
2022-11-20T17:56:54.433Z,26.88
2022-11-20T17:59:21.720Z,31.67
2022-11-20T18:01:48.810Z,26.52
2022-11-20T18:04:16.996Z,26.10
2022-11-20T18:06:44.433Z,18.30
2022-11-20T18:09:12.297Z,17.35
2022-11-20T18:11:41.819Z,16.60
2022-11-20T18:14:32.120Z,15.60
2022-11-20T18:17:02.591Z,19.73
2022-11-20T18:19:40.287Z,17.57
2022-11-20T18:22:13.148Z,16.23
2022-11-20T18:24:40.426Z,13.23
2022-11-20T18:27:09.669Z,9.85
2022-11-20T18:29:36.779Z,11.93
2022-11-20T18:32:03.818Z,11.00
2022-11-20T18:34:30.949Z,8.80
2022-11-20T18:36:58.095Z,8.55
2022-11-20T18:39:25.325Z,8.52
2022-11-20T18:42:11.221Z,9.13
2022-11-20T18:44:55.033Z,9.65
2022-11-20T18:47:25.353Z,10.38
2022-11-20T18:49:54.367Z,7.45
2022-11-20T18:52:35.684Z,7.50
2022-11-20T18:57:30.601Z,9.10
2022-11-20T19:00:07.899Z,6.28
2022-11-20T19:02:40.988Z,6.95
2022-11-20T19:05:23.566Z,7.15
2022-11-20T19:07:50.534Z,10.75
2022-11-20T19:10:20.706Z,10.25
2022-11-20T19:12:47.893Z,9.68
2022-11-20T19:15:15.006Z,8.65
2022-11-20T19:17:42.362Z,12.05
2022-11-20T19:20:09.933Z,6.60
2022-11-20T19:22:36.989Z,6.75
2022-11-20T19:25:04.450Z,8.48
2022-11-20T19:27:31.487Z,7.35
2022-11-20T19:30:03.639Z,5.85
2022-11-20T19:32:31.204Z,4.10
2022-11-20T19:34:58.224Z,3.72
2022-11-20T19:37:25.516Z,3.80
2022-11-20T19:39:52.565Z,5.68
2022-11-20T19:42:19.571Z,1.95
2022-11-20T19:44:46.664Z,3.05
2022-11-20T19:47:14.895Z,3.20
2022-11-20T19:49:42.080Z,3.20
2022-11-20T19:52:09.652Z,4.80
2022-11-20T19:54:36.601Z,3.47
2022-11-20T19:57:03.814Z,2.90
2022-11-20T19:59:31.458Z,2.70
2022-11-20T20:01:58.544Z,2.80
2022-11-20T20:04:25.715Z,2.45
2022-11-20T20:06:52.680Z,3.17
2022-11-20T20:09:19.814Z,2.67
2022-11-20T20:11:47.335Z,2.95
2022-11-20T20:14:16.232Z,2.65
2022-11-20T20:16:43.290Z,3.70
2022-11-20T20:19:15.290Z,4.53
2022-11-20T20:21:42.897Z,2.97
2022-11-20T20:24:11.235Z,5.53
2022-11-20T20:26:38.320Z,3.72
2022-11-20T20:29:05.428Z,5.22
2022-11-20T20:31:33.859Z,6.10
2022-11-20T20:34:01.371Z,7.03
2022-11-20T20:36:28.399Z,7.28
2022-11-20T20:38:59.717Z,4.85
2022-11-20T20:41:26.935Z,6.53
2022-11-20T20:44:33.003Z,5.65
2022-11-20T20:47:00.058Z,6.47
2022-11-20T20:49:27.097Z,5.78
2022-11-20T20:51:54.024Z,4.93
2022-11-20T20:54:21.189Z,3.88
2022-11-20T20:56:48.220Z,9.23
2022-11-20T20:59:15.330Z,5.75
2022-11-20T21:01:42.362Z,6.95
2022-11-20T21:04:09.501Z,16.00
2022-11-20T21:06:36.567Z,5.38
2022-11-20T21:09:04.006Z,5.53
2022-11-20T21:11:31.068Z,4.80
2022-11-20T21:13:58.125Z,9.32
2022-11-20T21:16:25.451Z,8.00
2022-11-20T21:18:52.585Z,7.60
2022-11-20T21:21:38.348Z,4.78
2022-11-20T21:24:06.033Z,7.13
2022-11-20T21:26:33.083Z,6.72
2022-11-20T21:29:00.254Z,7.75
2022-11-20T21:31:28.698Z,5.80
2022-11-20T21:33:57.153Z,7.95
2022-11-20T21:36:29.542Z,9.43
2022-11-20T21:38:57.584Z,4.65
2022-11-20T21:41:26.499Z,5.97
2022-11-20T21:44:28.959Z,9.52
2022-11-20T21:46:43.656Z,6.13
2022-11-20T21:49:11.777Z,8.85
2022-11-20T21:51:39.017Z,6.38
2022-11-20T21:54:06.186Z,5.57
2022-11-20T21:56:33.416Z,7.78
2022-11-20T21:59:00.818Z,6.80
2022-11-20T22:01:30.626Z,11.18
2022-11-20T22:04:00.312Z,9.52
2022-11-20T22:06:32.750Z,10.50
2022-11-20T22:09:00.401Z,6.63
2022-11-20T22:11:27.581Z,8.85
2022-11-20T22:14:13.224Z,7.43
2022-11-20T22:16:40.192Z,6.50
2022-11-20T22:19:07.788Z,9.77
2022-11-20T22:21:35.238Z,5.97
2022-11-20T22:24:02.605Z,8.13
2022-11-20T22:26:33.943Z,5.38
2022-11-20T22:29:04.849Z,5.35
2022-11-20T22:31:32.762Z,4.32
2022-11-20T22:34:02.482Z,3.78
2022-11-20T22:36:31.139Z,5.55
2022-11-20T22:38:58.830Z,8.35
2022-11-20T22:41:27.716Z,5.47
2022-11-20T22:43:59.425Z,5.35
2022-11-20T22:46:28.325Z,4.82
2022-11-20T22:49:00.230Z,4.85
2022-11-20T22:51:32.991Z,4.93
2022-11-20T22:54:00.357Z,4.38
2022-11-20T22:56:27.526Z,6.18
2022-11-20T22:58:55.109Z,4.18
2022-11-20T23:01:24.629Z,5.63
2022-11-20T23:03:55.139Z,6.90
2022-11-20T23:06:23.282Z,8.35
2022-11-20T23:08:51.002Z,9.05
2022-11-20T23:11:24.045Z,12.77
2022-11-20T23:14:02.610Z,12.90
2022-11-20T23:16:31.085Z,11.13
2022-11-20T23:19:04.644Z,10.18
2022-11-20T23:21:32.354Z,8.20
2022-11-20T23:23:59.904Z,10.55
2022-11-20T23:26:29.585Z,13.07
2022-11-20T23:28:58.032Z,8.13
2022-11-20T23:31:26.534Z,8.20
2022-11-20T23:33:53.680Z,8.02
2022-11-20T23:36:20.976Z,8.13
2022-11-20T23:38:47.998Z,5.85
2022-11-20T23:41:15.235Z,13.10
2022-11-20T23:43:42.303Z,6.78
2022-11-20T23:46:13.723Z,10.35
2022-11-20T23:48:45.183Z,16.27
2022-11-20T23:51:12.715Z,8.10
2022-11-20T23:53:40.093Z,9.38
2022-11-20T23:56:07.136Z,6.63
2022-11-20T23:58:36.455Z,9.27
